createdAt,value
2018-03-18T00:00:29.257Z,7.65
2018-03-18T00:01:03.127Z,7.65
2018-03-18T00:01:41.810Z,7.03
2018-03-18T00:02:15.676Z,7.50
2018-03-18T00:02:49.703Z,7.32
2018-03-18T00:03:23.541Z,7.45
2018-03-18T00:03:57.412Z,7.72
2018-03-18T00:04:31.283Z,7.00
2018-03-18T00:05:05.156Z,8.88
2018-03-18T00:05:39.017Z,7.80
2018-03-18T00:06:13.026Z,7.87
2018-03-18T00:06:46.899Z,7.62
2018-03-18T00:07:20.763Z,7.53
2018-03-18T00:07:54.624Z,8.18
2018-03-18T00:08:28.523Z,8.55
2018-03-18T00:09:02.359Z,6.57
2018-03-18T00:09:36.240Z,8.65
2018-03-18T00:10:10.098Z,8.65
2018-03-18T00:10:43.990Z,7.05
2018-03-18T00:11:17.841Z,7.57
2018-03-18T00:11:51.696Z,8.45
2018-03-18T00:12:25.550Z,7.47
2018-03-18T00:12:59.412Z,8.40
2018-03-18T00:13:33.284Z,8.02
2018-03-18T00:14:07.151Z,6.60
2018-03-18T00:14:41.035Z,8.60
2018-03-18T00:15:14.896Z,9.25
2018-03-18T00:15:48.836Z,7.80
2018-03-18T00:16:22.701Z,7.70
2018-03-18T00:16:56.582Z,9.57
2018-03-18T00:17:30.445Z,8.05
2018-03-18T00:18:04.307Z,8.10
2018-03-18T00:18:38.174Z,7.50
2018-03-18T00:19:12.031Z,7.97
2018-03-18T00:19:45.921Z,8.85
2018-03-18T00:20:19.813Z,8.80
2018-03-18T00:20:53.673Z,8.45
2018-03-18T00:21:27.542Z,8.43
2018-03-18T00:22:01.393Z,6.97
2018-03-18T00:22:35.254Z,7.30
2018-03-18T00:23:09.131Z,8.18
2018-03-18T00:23:43.012Z,6.82
2018-03-18T00:24:16.873Z,8.18
2018-03-18T00:24:50.753Z,8.70
2018-03-18T00:25:24.611Z,7.50
2018-03-18T00:25:58.465Z,7.90
2018-03-18T00:26:32.333Z,7.03
2018-03-18T00:27:06.193Z,7.87
2018-03-18T00:27:40.058Z,8.40
2018-03-18T00:28:14.022Z,8.25
2018-03-18T00:28:47.894Z,8.40
2018-03-18T00:29:21.750Z,9.02
2018-03-18T00:29:55.812Z,7.55
2018-03-18T00:30:29.679Z,7.97
2018-03-18T00:31:03.545Z,7.32
2018-03-18T00:31:37.411Z,8.30
2018-03-18T00:32:11.498Z,9.43
2018-03-18T00:32:45.353Z,8.93
2018-03-18T00:33:19.208Z,8.32
2018-03-18T00:33:53.060Z,9.23
2018-03-18T00:34:26.926Z,10.20
2018-03-18T00:35:00.801Z,8.48
2018-03-18T00:35:34.654Z,7.95
2018-03-18T00:36:08.535Z,7.03
2018-03-18T00:36:42.406Z,7.87
2018-03-18T00:37:16.275Z,8.30
2018-03-18T00:37:50.162Z,8.27
2018-03-18T00:38:24.017Z,9.18
2018-03-18T00:38:57.916Z,7.95
2018-03-18T00:39:31.778Z,7.75
2018-03-18T00:40:05.658Z,8.48
2018-03-18T00:40:39.559Z,8.23
2018-03-18T00:41:13.720Z,8.25
2018-03-18T00:41:47.596Z,7.97
2018-03-18T00:42:21.452Z,8.18
2018-03-18T00:42:55.405Z,7.85
2018-03-18T00:43:29.265Z,8.18
2018-03-18T00:44:03.121Z,7.50
2018-03-18T00:44:36.986Z,8.05
2018-03-18T00:45:10.869Z,8.25
2018-03-18T00:45:44.778Z,9.27
2018-03-18T00:46:18.700Z,7.78
2018-03-18T00:46:52.569Z,7.57
2018-03-18T00:47:26.453Z,8.02
2018-03-18T00:48:00.311Z,7.75
2018-03-18T00:48:34.179Z,9.10
2018-03-18T00:49:08.060Z,6.20
2018-03-18T00:49:41.944Z,7.50
2018-03-18T00:50:15.840Z,8.38
2018-03-18T00:50:49.704Z,7.45
2018-03-18T00:51:29.422Z,7.85
2018-03-18T00:52:03.288Z,7.97
2018-03-18T00:52:37.154Z,7.03
2018-03-18T00:53:11.011Z,6.50
2018-03-18T00:53:44.902Z,8.05
2018-03-18T00:54:18.810Z,7.10
2018-03-18T00:54:52.658Z,6.95
2018-03-18T00:55:26.540Z,9.20
2018-03-18T00:56:00.421Z,7.78
2018-03-18T00:56:34.324Z,7.22
2018-03-18T00:57:08.179Z,8.85
2018-03-18T00:57:42.107Z,7.75
2018-03-18T00:58:15.990Z,9.23
2018-03-18T00:58:49.840Z,7.55
2018-03-18T00:59:23.727Z,8.50
2018-03-18T00:59:57.601Z,8.73
2018-03-18T01:00:31.480Z,7.30
2018-03-18T01:01:05.352Z,8.55
2018-03-18T01:01:39.233Z,8.35
2018-03-18T01:02:13.094Z,8.30
2018-03-18T01:02:46.949Z,8.10
2018-03-18T01:03:20.806Z,7.60
2018-03-18T01:03:54.753Z,8.60
2018-03-18T01:04:28.606Z,8.50
2018-03-18T01:05:02.495Z,7.15
2018-03-18T01:05:36.371Z,7.82
2018-03-18T01:06:10.225Z,8.23
2018-03-18T01:06:44.086Z,7.82
2018-03-18T01:07:17.953Z,7.25
2018-03-18T01:07:51.820Z,8.25
2018-03-18T01:08:25.703Z,7.62
2018-03-18T01:08:59.600Z,7.93
2018-03-18T01:09:33.463Z,8.40
2018-03-18T01:10:07.335Z,7.90
2018-03-18T01:10:41.391Z,8.35
2018-03-18T01:11:15.311Z,8.45
2018-03-18T01:11:49.150Z,7.35
2018-03-18T01:12:23.002Z,7.82
2018-03-18T01:12:56.848Z,6.62
2018-03-18T01:13:30.738Z,6.82
2018-03-18T01:14:04.622Z,7.00
2018-03-18T01:14:38.505Z,7.57
2018-03-18T01:15:12.378Z,7.05
2018-03-18T01:15:46.451Z,7.97
2018-03-18T01:16:20.339Z,8.30
2018-03-18T01:16:54.203Z,7.47
2018-03-18T01:17:28.068Z,7.37
2018-03-18T01:18:01.931Z,8.45
2018-03-18T01:18:35.796Z,9.63
2018-03-18T01:19:09.655Z,6.40
2018-03-18T01:19:43.520Z,8.13
2018-03-18T01:20:17.451Z,6.82
2018-03-18T01:20:51.382Z,7.05
2018-03-18T01:21:25.267Z,7.95
2018-03-18T01:21:59.141Z,7.28
2018-03-18T01:22:33.001Z,7.72
2018-03-18T01:23:06.866Z,8.52
2018-03-18T01:23:41.087Z,9.07
2018-03-18T01:24:14.956Z,7.90
2018-03-18T01:24:48.809Z,7.75
2018-03-18T01:25:22.708Z,8.90
2018-03-18T01:25:56.622Z,10.63
2018-03-18T01:26:30.493Z,7.57
2018-03-18T01:27:04.370Z,8.52
2018-03-18T01:27:38.226Z,6.00
2018-03-18T01:28:12.080Z,8.52
2018-03-18T01:28:46.147Z,7.50
2018-03-18T01:29:20.009Z,9.15
2018-03-18T01:29:53.864Z,8.70
2018-03-18T01:30:27.837Z,7.62
2018-03-18T01:31:01.707Z,7.97
2018-03-18T01:31:35.568Z,7.45
2018-03-18T01:32:09.427Z,7.90
2018-03-18T01:32:43.589Z,9.10
2018-03-18T01:33:17.433Z,7.85
2018-03-18T01:33:51.313Z,9.90
2018-03-18T01:34:25.692Z,8.20
2018-03-18T01:34:59.912Z,8.63
2018-03-18T01:35:33.812Z,8.45
2018-03-18T01:36:07.686Z,8.65
2018-03-18T01:36:41.547Z,9.38
2018-03-18T01:37:15.406Z,8.40
2018-03-18T01:37:49.269Z,8.60
2018-03-18T01:38:23.146Z,8.48
2018-03-18T01:38:57.182Z,8.80
2018-03-18T01:39:31.037Z,8.50
2018-03-18T01:40:04.931Z,8.20
2018-03-18T01:40:38.806Z,7.10
2018-03-18T01:41:12.680Z,7.90
2018-03-18T01:41:46.578Z,7.37
2018-03-18T01:42:20.443Z,7.55
2018-03-18T01:42:54.280Z,7.87
2018-03-18T01:43:28.205Z,7.43
2018-03-18T01:44:02.057Z,6.95
2018-03-18T01:44:35.916Z,7.80
2018-03-18T01:45:09.764Z,8.15
2018-03-18T01:45:43.621Z,7.90
2018-03-18T01:46:17.491Z,7.10
2018-03-18T01:46:51.510Z,8.27
2018-03-18T01:47:25.364Z,7.57
2018-03-18T01:47:59.232Z,8.02
2018-03-18T01:48:33.118Z,9.40
2018-03-18T01:49:06.989Z,8.25
2018-03-18T01:49:40.853Z,6.28
2018-03-18T01:50:14.705Z,6.68
2018-03-18T01:50:48.573Z,6.75
2018-03-18T01:51:22.486Z,7.57
2018-03-18T01:51:56.477Z,7.45
2018-03-18T01:52:30.509Z,6.97
2018-03-18T01:53:10.180Z,8.02
2018-03-18T01:53:44.038Z,7.75
2018-03-18T01:54:18.766Z,8.38
2018-03-18T01:54:52.650Z,7.70
2018-03-18T01:55:26.509Z,7.53
2018-03-18T01:56:01.213Z,8.23
2018-03-18T01:56:35.098Z,8.10
2018-03-18T01:57:08.965Z,7.03
2018-03-18T01:57:42.832Z,6.75
2018-03-18T01:58:16.699Z,8.73
2018-03-18T01:58:50.546Z,7.12
2018-03-18T01:59:24.494Z,7.25
2018-03-18T01:59:58.352Z,6.57
2018-03-18T02:00:32.231Z,7.47
2018-03-18T02:01:06.114Z,8.38
2018-03-18T02:01:40.269Z,8.73
2018-03-18T02:02:14.138Z,7.93
2018-03-18T02:02:48.014Z,7.85
2018-03-18T02:03:21.882Z,9.25
2018-03-18T02:03:55.749Z,8.40
2018-03-18T02:04:29.617Z,7.05
2018-03-18T02:05:03.487Z,7.75
2018-03-18T02:05:37.921Z,9.07
2018-03-18T02:06:11.801Z,7.87
2018-03-18T02:06:45.726Z,6.90
2018-03-18T02:07:19.592Z,7.97
2018-03-18T02:07:53.461Z,7.25
2018-03-18T02:08:27.356Z,7.20
2018-03-18T02:09:01.230Z,6.50
2018-03-18T02:09:35.084Z,7.80
2018-03-18T02:10:09.002Z,6.97
2018-03-18T02:10:42.862Z,7.78
2018-03-18T02:11:16.739Z,8.90
2018-03-18T02:11:50.614Z,7.93
2018-03-18T02:12:24.469Z,8.30
2018-03-18T02:12:58.347Z,8.15
2018-03-18T02:13:32.212Z,7.60
2018-03-18T02:14:06.174Z,7.18
2018-03-18T02:14:40.044Z,7.65
2018-03-18T02:15:13.918Z,8.48
2018-03-18T02:15:47.774Z,7.85
2018-03-18T02:16:21.733Z,8.32
2018-03-18T02:16:55.610Z,6.78
2018-03-18T02:17:29.459Z,6.97
2018-03-18T02:18:03.374Z,6.75
2018-03-18T02:18:37.228Z,6.93
2018-03-18T02:19:11.223Z,7.10
2018-03-18T02:19:45.204Z,7.35
2018-03-18T02:33:14.133Z,4.93
2018-03-18T02:33:48.006Z,6.45
2018-03-18T02:34:21.857Z,5.60
2018-03-18T02:34:55.888Z,6.68
2018-03-18T02:35:30.154Z,7.57
2018-03-18T02:36:04.018Z,5.72
2018-03-18T02:36:38.188Z,6.45
2018-03-18T02:37:12.287Z,7.25
2018-03-18T02:37:46.174Z,6.93
2018-03-18T02:38:20.113Z,5.57
2018-03-18T02:38:53.976Z,6.75
2018-03-18T02:39:28.682Z,7.00
2018-03-18T02:40:02.895Z,7.12
2018-03-18T02:40:39.527Z,6.72
2018-03-18T02:41:13.446Z,7.60
2018-03-18T02:41:47.309Z,6.90
2018-03-18T02:42:21.187Z,6.57
2018-03-18T02:42:55.088Z,6.93
2018-03-18T02:43:29.029Z,6.82
2018-03-18T02:44:02.987Z,6.25
2018-03-18T02:44:37.082Z,6.40
2018-03-18T02:45:10.998Z,7.87
2018-03-18T02:45:44.959Z,7.15
2018-03-18T02:46:18.829Z,6.47
2018-03-18T02:46:53.900Z,6.10
2018-03-18T02:47:27.771Z,6.50
2018-03-18T02:48:01.683Z,6.05
2018-03-18T02:48:36.300Z,6.22
2018-03-18T02:49:10.161Z,7.62
2018-03-18T02:49:44.007Z,7.57
2018-03-18T02:50:18.133Z,6.65
2018-03-18T02:50:51.996Z,6.57
2018-03-18T02:51:27.207Z,6.80
2018-03-18T02:52:01.062Z,7.45
2018-03-18T02:52:35.657Z,7.12
2018-03-18T02:53:09.519Z,6.75
2018-03-18T02:53:43.397Z,6.20
2018-03-18T02:54:17.248Z,6.37
2018-03-18T02:54:51.104Z,7.80
2018-03-18T02:55:25.630Z,7.62
2018-03-18T02:56:00.263Z,7.20
2018-03-18T02:56:34.108Z,6.20
2018-03-18T02:57:08.281Z,6.12
2018-03-18T02:57:42.141Z,7.37
2018-03-18T02:58:16.851Z,7.85
2018-03-18T02:58:50.726Z,6.05
2018-03-18T02:59:24.575Z,6.50
2018-03-18T02:59:58.434Z,6.60
2018-03-18T03:00:32.320Z,5.75
2018-03-18T03:01:06.225Z,7.20
2018-03-18T03:01:40.080Z,6.72
2018-03-18T03:02:14.790Z,6.12
2018-03-18T03:02:48.869Z,7.40
2018-03-18T03:03:22.748Z,6.25
2018-03-18T03:03:56.618Z,6.18
2018-03-18T03:04:31.318Z,7.28
2018-03-18T03:05:05.933Z,6.37
2018-03-18T03:05:39.793Z,7.05
2018-03-18T03:06:13.651Z,6.07
2018-03-18T03:06:47.658Z,7.20
2018-03-18T03:07:21.515Z,5.95
2018-03-18T03:07:56.144Z,7.25
2018-03-18T03:08:30.053Z,6.53
2018-03-18T03:09:03.933Z,7.68
2018-03-18T03:09:38.478Z,6.15
2018-03-18T03:10:12.328Z,6.85
2018-03-18T03:10:46.173Z,7.25
2018-03-18T03:11:20.023Z,5.50
2018-03-18T03:11:53.933Z,5.43
2018-03-18T03:12:27.783Z,6.85
2018-03-18T03:13:01.649Z,6.93
2018-03-18T03:13:35.515Z,5.97
2018-03-18T03:14:09.396Z,6.10
2018-03-18T03:14:43.312Z,6.37
2018-03-18T03:15:17.160Z,5.80
2018-03-18T03:15:51.025Z,6.55
2018-03-18T03:16:24.888Z,6.70
2018-03-18T03:16:58.753Z,6.35
2018-03-18T03:17:32.608Z,7.78
2018-03-18T03:18:06.475Z,7.05
2018-03-18T03:18:40.327Z,7.35
2018-03-18T03:19:14.211Z,7.07
2018-03-18T03:19:48.079Z,6.97
2018-03-18T03:20:22.054Z,6.30
2018-03-18T03:20:56.748Z,6.85
2018-03-18T03:21:30.627Z,7.00
2018-03-18T03:22:04.489Z,7.10
2018-03-18T03:22:38.341Z,7.82
2018-03-18T03:23:12.197Z,8.65
2018-03-18T03:23:46.069Z,8.25
2018-03-18T03:24:19.962Z,6.80
2018-03-18T03:24:53.856Z,7.82
2018-03-18T03:25:27.763Z,6.25
2018-03-18T03:26:01.623Z,7.45
2018-03-18T03:26:35.506Z,6.47
2018-03-18T03:27:09.364Z,6.03
2018-03-18T03:27:43.245Z,6.60
2018-03-18T03:28:17.106Z,6.15
2018-03-18T03:28:50.970Z,6.78
2018-03-18T03:29:24.829Z,7.07
2018-03-18T03:29:58.681Z,5.72
2018-03-18T03:30:32.577Z,6.70
2018-03-18T03:31:06.438Z,6.32
2018-03-18T03:31:40.371Z,6.03
2018-03-18T03:32:14.612Z,7.10
2018-03-18T03:32:48.467Z,6.47
2018-03-18T03:33:22.334Z,6.32
2018-03-18T03:33:56.192Z,7.65
2018-03-18T03:34:30.088Z,6.22
2018-03-18T03:35:03.954Z,6.75
2018-03-18T03:35:37.819Z,8.45
2018-03-18T03:36:11.672Z,6.68
2018-03-18T03:36:45.525Z,6.78
2018-03-18T03:37:19.375Z,6.40
2018-03-18T03:37:53.245Z,7.10
2018-03-18T03:38:27.617Z,5.30
2018-03-18T03:39:01.476Z,7.03
2018-03-18T03:39:35.350Z,6.75
2018-03-18T03:40:09.208Z,6.85
2018-03-18T03:40:43.094Z,6.20
2018-03-18T03:41:17.493Z,7.00
2018-03-18T03:41:51.354Z,6.82
2018-03-18T03:42:25.220Z,7.00
2018-03-18T03:42:59.082Z,6.10
2018-03-18T03:43:32.973Z,7.05
2018-03-18T03:44:06.900Z,5.93
2018-03-18T03:44:40.790Z,6.40
2018-03-18T03:45:14.646Z,6.18
2018-03-18T03:45:48.537Z,6.18
2018-03-18T03:46:22.393Z,6.65
2018-03-18T03:46:56.280Z,6.05
2018-03-18T03:47:30.156Z,6.78
2018-03-18T03:48:04.013Z,6.43
2018-03-18T03:48:37.873Z,5.90
2018-03-18T03:49:11.724Z,5.15
2018-03-18T03:49:45.583Z,5.80
2018-03-18T03:50:19.444Z,5.40
2018-03-18T03:50:53.305Z,6.22
2018-03-18T03:51:27.158Z,7.12
2018-03-18T03:52:01.047Z,6.93
2018-03-18T03:52:34.914Z,6.97
2018-03-18T03:53:08.769Z,6.90
2018-03-18T03:53:42.628Z,6.80
2018-03-18T03:54:16.487Z,6.53
2018-03-18T03:54:50.366Z,6.97
2018-03-18T03:55:24.278Z,6.10
2018-03-18T03:55:58.142Z,6.40
2018-03-18T03:56:32.004Z,5.60
2018-03-18T03:57:05.965Z,5.57
2018-03-18T03:57:39.828Z,6.47
2018-03-18T03:58:13.687Z,5.28
2018-03-18T03:58:47.550Z,5.95
2018-03-18T03:59:21.412Z,6.80
2018-03-18T03:59:55.337Z,5.85
2018-03-18T04:00:29.211Z,6.35
2018-03-18T04:01:03.080Z,6.15
2018-03-18T04:01:36.938Z,6.30
2018-03-18T04:02:10.814Z,5.68
2018-03-18T04:02:44.659Z,5.87
2018-03-18T04:03:18.535Z,7.30
2018-03-18T04:03:52.400Z,6.35
2018-03-18T04:04:26.260Z,5.35
2018-03-18T04:05:00.147Z,5.30
2018-03-18T04:05:34.015Z,6.15
2018-03-18T04:06:07.869Z,6.70
2018-03-18T04:06:41.726Z,5.53
2018-03-18T04:07:15.581Z,6.32
2018-03-18T04:07:49.435Z,6.10
2018-03-18T04:08:23.305Z,5.97
2018-03-18T04:08:57.175Z,6.32
2018-03-18T04:09:31.045Z,5.85
2018-03-18T04:10:05.968Z,6.87
2018-03-18T04:10:39.837Z,7.05
2018-03-18T04:11:13.718Z,6.68
2018-03-18T04:11:47.575Z,6.45
2018-03-18T04:12:21.422Z,6.20
2018-03-18T04:12:55.283Z,7.10
2018-03-18T04:13:29.137Z,7.00
2018-03-18T04:14:02.996Z,7.15
2018-03-18T04:14:36.854Z,5.93
2018-03-18T04:15:10.732Z,5.78
2018-03-18T04:15:44.602Z,5.45
2018-03-18T04:16:18.463Z,5.15
2018-03-18T04:16:52.313Z,6.05
2018-03-18T04:17:26.177Z,6.55
2018-03-18T04:18:00.091Z,6.35
2018-03-18T04:18:33.940Z,5.82
2018-03-18T04:19:07.799Z,6.10
2018-03-18T04:19:41.657Z,6.95
2018-03-18T04:20:15.521Z,5.05
2018-03-18T04:20:49.402Z,6.55
2018-03-18T04:21:23.262Z,5.90
2018-03-18T04:21:57.123Z,6.05
2018-03-18T04:22:31.251Z,5.72
2018-03-18T04:23:05.104Z,4.25
2018-03-18T04:23:38.981Z,5.60
2018-03-18T04:24:12.840Z,6.65
2018-03-18T04:24:46.701Z,6.00
2018-03-18T04:25:20.590Z,5.90
2018-03-18T04:25:54.444Z,7.00
2018-03-18T04:26:28.298Z,6.05
2018-03-18T04:27:02.153Z,5.20
2018-03-18T04:27:35.999Z,6.40
2018-03-18T04:28:09.850Z,6.15
2018-03-18T04:28:43.710Z,4.87
2018-03-18T04:29:17.579Z,6.65
2018-03-18T04:29:51.427Z,5.30
2018-03-18T04:30:25.293Z,6.05
2018-03-18T04:30:59.147Z,5.50
2018-03-18T04:31:33.173Z,5.78
2018-03-18T04:32:07.041Z,4.70
2018-03-18T04:32:40.911Z,5.50
2018-03-18T04:33:14.766Z,6.05
2018-03-18T04:33:48.628Z,6.93
2018-03-18T04:34:22.490Z,6.40
2018-03-18T04:34:56.336Z,5.47
2018-03-18T04:35:30.214Z,6.45
2018-03-18T04:36:04.074Z,5.45
2018-03-18T04:36:37.933Z,5.65
2018-03-18T04:37:11.788Z,6.55
2018-03-18T04:37:45.661Z,6.25
2018-03-18T04:38:19.514Z,5.93
2018-03-18T04:38:53.382Z,6.80
2018-03-18T04:39:27.256Z,5.28
2018-03-18T04:40:01.117Z,6.25
2018-03-18T04:40:35.023Z,5.30
2018-03-18T04:41:09.188Z,5.68
2018-03-18T04:41:43.044Z,6.35
2018-03-18T04:42:16.905Z,6.70
2018-03-18T04:42:50.766Z,5.85
2018-03-18T04:43:24.637Z,5.93
2018-03-18T04:43:58.480Z,5.80
2018-03-18T04:44:32.342Z,5.87
2018-03-18T04:45:06.194Z,6.40
2018-03-18T04:45:40.141Z,5.75
2018-03-18T04:46:13.992Z,6.10
2018-03-18T04:48:35.141Z,5.75
2018-03-18T04:49:09.011Z,5.95
2018-03-18T04:49:42.940Z,5.12
2018-03-18T04:50:16.802Z,6.45
2018-03-18T04:50:50.670Z,6.78
2018-03-18T04:51:24.529Z,5.50
2018-03-18T04:51:58.386Z,5.95
2018-03-18T04:52:32.261Z,6.10
2018-03-18T04:53:06.126Z,5.80
2018-03-18T04:53:39.969Z,6.75
2018-03-18T04:54:14.044Z,5.28
2018-03-18T04:54:47.904Z,6.80
2018-03-18T04:55:21.752Z,6.37
2018-03-18T04:55:55.631Z,5.90
2018-03-18T04:56:29.490Z,5.85
2018-03-18T04:57:03.340Z,6.45
2018-03-18T04:57:37.470Z,5.45
2018-03-18T04:58:11.325Z,5.85
2018-03-18T04:58:45.183Z,5.55
2018-03-18T04:59:19.176Z,5.82
2018-03-18T04:59:53.040Z,5.80
2018-03-18T05:00:26.893Z,6.50
2018-03-18T05:01:00.777Z,7.22
2018-03-18T05:01:34.630Z,5.20
2018-03-18T05:02:08.491Z,5.45
2018-03-18T05:02:42.349Z,6.00
2018-03-18T05:03:16.209Z,6.00
2018-03-18T05:03:50.117Z,7.03
2018-03-18T05:04:23.971Z,6.07
2018-03-18T05:04:57.812Z,5.72
2018-03-18T05:05:31.673Z,4.60
2018-03-18T05:06:05.572Z,5.32
2018-03-18T05:06:39.448Z,5.53
2018-03-18T05:07:13.307Z,6.50
2018-03-18T05:07:47.166Z,5.55
2018-03-18T05:08:21.034Z,6.40
2018-03-18T05:08:55.177Z,5.68
2018-03-18T05:09:29.036Z,8.25
2018-03-18T05:10:02.891Z,5.80
2018-03-18T05:10:36.758Z,6.05
2018-03-18T05:11:10.633Z,6.15
2018-03-18T05:11:44.547Z,6.60
2018-03-18T05:12:18.401Z,6.05
2018-03-18T05:12:52.271Z,6.65
2018-03-18T05:13:26.120Z,6.60
2018-03-18T05:14:00.000Z,6.45
2018-03-18T05:14:33.868Z,6.15
2018-03-18T05:15:07.754Z,5.62
2018-03-18T05:15:41.609Z,6.32
2018-03-18T05:16:15.494Z,5.95
2018-03-18T05:16:49.350Z,6.03
2018-03-18T05:17:23.271Z,5.45
2018-03-18T05:17:57.310Z,6.62
2018-03-18T05:18:31.177Z,4.93
2018-03-18T05:19:05.058Z,5.47
2018-03-18T05:19:38.941Z,5.95
2018-03-18T05:20:12.810Z,6.28
2018-03-18T05:20:46.665Z,6.53
2018-03-18T05:21:20.560Z,6.72
2018-03-18T05:21:54.421Z,5.75
2018-03-18T05:22:28.278Z,5.70
2018-03-18T05:23:02.137Z,6.05
2018-03-18T05:23:35.984Z,6.03
2018-03-18T05:24:10.039Z,6.03
2018-03-18T05:24:43.903Z,5.47
2018-03-18T05:25:17.765Z,5.62
2018-03-18T05:25:51.726Z,5.95
2018-03-18T05:26:25.598Z,5.18
2018-03-18T05:26:59.456Z,5.93
2018-03-18T05:27:33.315Z,4.97
2018-03-18T05:28:07.174Z,4.80
2018-03-18T05:28:41.029Z,5.45
2018-03-18T05:29:14.890Z,5.95
2018-03-18T05:29:48.744Z,5.45
2018-03-18T05:30:22.594Z,6.05
2018-03-18T05:30:56.446Z,6.28
2018-03-18T05:31:30.326Z,6.30
2018-03-18T05:32:04.171Z,6.25
2018-03-18T05:32:38.050Z,6.45
2018-03-18T05:33:11.907Z,4.90
2018-03-18T05:33:45.775Z,5.20
2018-03-18T05:34:19.630Z,6.25
2018-03-18T05:34:53.492Z,6.20
2018-03-18T05:35:27.434Z,5.62
2018-03-18T05:36:01.301Z,6.30
2018-03-18T05:36:35.443Z,4.72
2018-03-18T05:37:09.427Z,5.78
2018-03-18T05:37:43.286Z,6.32
2018-03-18T05:38:17.143Z,5.62
2018-03-18T05:38:51.013Z,6.10
2018-03-18T05:39:24.877Z,6.20
2018-03-18T05:39:58.737Z,5.57
2018-03-18T05:40:32.605Z,4.70
2018-03-18T05:41:06.471Z,5.80
2018-03-18T05:41:40.383Z,5.70
2018-03-18T05:42:14.234Z,5.32
2018-03-18T05:42:48.099Z,6.25
2018-03-18T05:43:21.962Z,6.07
2018-03-18T05:43:55.820Z,5.80
2018-03-18T05:44:29.700Z,5.32
2018-03-18T05:45:03.567Z,5.75
2018-03-18T05:45:37.435Z,6.05
2018-03-18T05:46:11.301Z,4.87
2018-03-18T05:46:45.174Z,6.40
2018-03-18T05:47:19.028Z,5.68
2018-03-18T05:47:52.896Z,6.12
2018-03-18T05:48:26.742Z,6.03
2018-03-18T05:49:00.607Z,5.30
2018-03-18T05:49:34.444Z,5.07
2018-03-18T05:50:08.295Z,6.10
2018-03-18T05:50:42.162Z,5.60
2018-03-18T05:51:16.021Z,6.00
2018-03-18T05:51:49.894Z,7.03
2018-03-18T05:52:23.757Z,6.32
2018-03-18T05:52:57.618Z,5.90
2018-03-18T05:53:31.479Z,5.47
2018-03-18T05:54:05.324Z,5.45
2018-03-18T05:54:39.175Z,6.55
2018-03-18T05:55:13.017Z,5.68
2018-03-18T05:55:46.876Z,6.50
2018-03-18T05:56:20.776Z,5.65
2018-03-18T05:56:54.942Z,5.65
2018-03-18T05:57:28.785Z,5.97
2018-03-18T05:58:02.638Z,6.85
2018-03-18T05:58:36.631Z,6.25
2018-03-18T05:59:10.506Z,6.05
2018-03-18T05:59:44.373Z,5.60
2018-03-18T06:00:18.222Z,6.10
2018-03-18T06:00:52.081Z,7.05
2018-03-18T06:01:25.954Z,5.70
2018-03-18T06:01:59.822Z,6.45
2018-03-18T06:02:33.682Z,6.50
2018-03-18T06:03:07.545Z,5.47
2018-03-18T06:03:41.387Z,6.45
2018-03-18T06:04:15.243Z,5.12
2018-03-18T06:04:49.089Z,5.53
2018-03-18T06:05:22.955Z,5.70
2018-03-18T06:05:56.818Z,5.07
2018-03-18T06:06:30.677Z,5.28
2018-03-18T06:07:04.540Z,6.28
2018-03-18T06:07:38.399Z,6.20
2018-03-18T06:08:12.240Z,5.43
2018-03-18T06:08:46.101Z,5.50
2018-03-18T06:09:19.950Z,5.80
2018-03-18T06:09:53.817Z,5.10
2018-03-18T06:10:27.666Z,6.10
2018-03-18T06:11:01.528Z,5.70
2018-03-18T06:11:35.378Z,4.50
2018-03-18T06:12:09.249Z,6.03
2018-03-18T06:12:43.136Z,5.93
2018-03-18T06:13:16.984Z,5.30
2018-03-18T06:13:50.833Z,6.50
2018-03-18T06:14:24.678Z,5.30
2018-03-18T06:14:58.528Z,6.32
2018-03-18T06:15:32.382Z,5.82
2018-03-18T06:16:06.251Z,5.40
2018-03-18T06:16:40.098Z,5.20
2018-03-18T06:17:13.980Z,6.10
2018-03-18T06:17:47.843Z,5.18
2018-03-18T06:18:21.838Z,5.28
2018-03-18T06:18:55.692Z,6.15
2018-03-18T06:19:29.551Z,6.43
2018-03-18T06:20:03.414Z,6.15
2018-03-18T06:20:37.269Z,6.20
2018-03-18T06:21:11.132Z,5.50
2018-03-18T06:21:45.009Z,6.82
2018-03-18T06:22:18.892Z,5.75
2018-03-18T06:22:52.797Z,6.28
2018-03-18T06:23:26.653Z,6.25
2018-03-18T06:24:00.519Z,5.00
2018-03-18T06:24:34.386Z,6.10
2018-03-18T06:25:08.235Z,6.20
2018-03-18T06:25:42.089Z,5.90
2018-03-18T06:26:15.942Z,4.87
2018-03-18T06:26:49.789Z,6.18
2018-03-18T06:27:23.684Z,4.90
2018-03-18T06:27:57.532Z,5.55
2018-03-18T06:28:31.396Z,5.53
2018-03-18T06:29:05.445Z,5.55
2018-03-18T06:29:39.310Z,6.65
2018-03-18T06:30:13.197Z,5.90
2018-03-18T06:30:47.050Z,5.55
2018-03-18T06:31:20.917Z,6.35
2018-03-18T06:31:54.801Z,5.62
2018-03-18T06:32:29.116Z,6.12
2018-03-18T06:33:02.984Z,5.20
2018-03-18T06:33:36.853Z,5.32
2018-03-18T06:34:10.710Z,4.22
2018-03-18T06:34:44.568Z,5.87
2018-03-18T06:35:18.438Z,5.62
2018-03-18T06:35:52.313Z,5.80
2018-03-18T06:36:26.169Z,6.32
2018-03-18T06:37:00.076Z,5.03
2018-03-18T06:37:33.996Z,5.62
2018-03-18T06:38:07.837Z,5.30
2018-03-18T06:38:41.684Z,5.45
2018-03-18T06:39:15.529Z,5.28
2018-03-18T06:39:49.390Z,5.75
2018-03-18T06:40:23.250Z,5.70
2018-03-18T06:40:57.106Z,5.60
2018-03-18T06:41:30.954Z,5.12
2018-03-18T06:42:04.805Z,4.72
2018-03-18T06:42:38.660Z,5.20
2018-03-18T06:43:12.513Z,6.00
2018-03-18T06:43:46.378Z,5.40
2018-03-18T06:44:20.233Z,6.18
2018-03-18T06:44:54.098Z,5.72
2018-03-18T06:45:27.953Z,5.55
2018-03-18T06:46:01.826Z,6.18
2018-03-18T06:46:35.670Z,5.50
2018-03-18T06:47:09.540Z,5.12
2018-03-18T06:47:43.456Z,5.45
2018-03-18T06:48:17.308Z,5.12
2018-03-18T06:48:51.156Z,5.95
2018-03-18T06:49:25.049Z,5.12
2018-03-18T06:49:58.904Z,5.78
2018-03-18T06:50:32.766Z,5.80
2018-03-18T06:51:06.637Z,6.43
2018-03-18T06:51:40.484Z,5.65
2018-03-18T06:52:14.340Z,4.80
2018-03-18T06:52:48.211Z,5.25
2018-03-18T06:53:22.068Z,5.10
2018-03-18T06:53:55.918Z,4.85
2018-03-18T06:54:29.772Z,5.30
2018-03-18T06:55:03.635Z,6.25
2018-03-18T06:55:37.696Z,5.85
2018-03-18T06:56:11.551Z,5.50
2018-03-18T06:56:45.402Z,5.53
2018-03-18T06:57:19.275Z,5.50
2018-03-18T06:57:53.148Z,6.00
2018-03-18T06:58:27.076Z,4.40
2018-03-18T06:59:00.936Z,6.12
2018-03-18T06:59:34.790Z,5.85
2018-03-18T07:00:08.644Z,5.10
2018-03-18T07:00:42.493Z,5.50
2018-03-18T07:01:16.332Z,6.18
2018-03-18T07:01:50.204Z,5.07
2018-03-18T07:02:24.050Z,5.70
2018-03-18T07:02:57.929Z,6.25
2018-03-18T07:03:31.790Z,5.90
2018-03-18T07:04:05.647Z,6.12
2018-03-18T07:04:39.510Z,6.25
2018-03-18T07:05:13.373Z,5.95
2018-03-18T07:05:47.238Z,5.32
2018-03-18T07:06:21.296Z,6.15
2018-03-18T07:06:55.153Z,6.10
2018-03-18T07:07:29.029Z,5.05
2018-03-18T07:08:02.983Z,5.00
2018-03-18T07:08:36.831Z,6.12
2018-03-18T07:09:10.877Z,4.95
2018-03-18T07:09:44.735Z,4.62
2018-03-18T07:10:18.587Z,4.30
2018-03-18T07:10:52.562Z,5.55
2018-03-18T07:11:26.409Z,4.87
2018-03-18T07:12:00.266Z,5.05
2018-03-18T07:12:34.155Z,6.12
2018-03-18T07:13:08.100Z,6.50
2018-03-18T07:13:41.947Z,5.25
2018-03-18T07:14:15.937Z,6.12
2018-03-18T07:14:49.802Z,5.28
2018-03-18T07:15:23.648Z,5.25
2018-03-18T07:15:57.501Z,6.32
2018-03-18T07:16:31.376Z,6.37
2018-03-18T07:17:05.241Z,5.28
2018-03-18T07:17:39.100Z,5.05
2018-03-18T07:18:12.973Z,5.45
2018-03-18T07:18:46.822Z,5.85
2018-03-18T07:19:20.677Z,5.43
2018-03-18T07:19:54.530Z,6.15
2018-03-18T07:20:28.393Z,4.90
2018-03-18T07:21:02.254Z,6.10
2018-03-18T07:21:36.164Z,5.53
2018-03-18T07:22:10.034Z,5.97
2018-03-18T07:22:43.887Z,5.50
2018-03-18T07:23:17.763Z,5.65
2018-03-18T07:23:51.639Z,5.72
2018-03-18T07:24:25.514Z,5.55
2018-03-18T07:24:59.535Z,6.00
2018-03-18T07:25:33.408Z,6.65
2018-03-18T07:26:07.265Z,5.62
2018-03-18T07:26:41.123Z,5.10
2018-03-18T07:27:15.008Z,5.65
2018-03-18T07:27:49.113Z,5.30
2018-03-18T07:28:22.995Z,5.47
2018-03-18T07:28:56.857Z,5.22
2018-03-18T07:29:30.736Z,5.80
2018-03-18T07:30:04.593Z,5.55
2018-03-18T07:30:38.452Z,5.47
2018-03-18T07:31:12.305Z,5.45
2018-03-18T07:31:46.172Z,5.65
2018-03-18T07:32:20.039Z,5.60
2018-03-18T07:32:53.899Z,5.50
2018-03-18T07:33:27.781Z,5.15
2018-03-18T07:34:01.633Z,4.93
2018-03-18T07:34:35.497Z,5.53
2018-03-18T07:35:09.344Z,4.85
2018-03-18T07:35:43.210Z,5.28
2018-03-18T07:36:17.066Z,6.22
2018-03-18T07:36:50.936Z,5.07
2018-03-18T07:37:24.805Z,5.05
2018-03-18T07:37:58.710Z,5.80
2018-03-18T07:38:32.744Z,4.85
2018-03-18T07:39:06.594Z,5.05
2018-03-18T07:39:40.459Z,5.70
2018-03-18T07:40:14.452Z,5.43
2018-03-18T07:40:48.309Z,5.07
2018-03-18T07:41:22.182Z,4.68
2018-03-18T07:41:56.033Z,4.57
2018-03-18T07:42:29.898Z,4.55
2018-03-18T07:43:03.769Z,5.25
2018-03-18T07:43:37.646Z,4.93
2018-03-18T07:44:11.528Z,5.30
2018-03-18T07:44:45.390Z,5.20
2018-03-18T07:45:19.241Z,6.05
2018-03-18T07:45:53.746Z,4.85
2018-03-18T07:46:27.657Z,5.45